createdAt,value
2018-12-25T00:02:10.932Z,6.60
2018-12-25T00:04:39.397Z,8.07
2018-12-25T00:07:07.884Z,6.60
2018-12-25T00:09:36.523Z,8.27
2018-12-25T00:12:04.987Z,9.33
2018-12-25T00:14:33.468Z,6.53
2018-12-25T00:17:01.944Z,6.83
2018-12-25T00:19:30.395Z,7.07
2018-12-25T00:21:59.211Z,7.57
2018-12-25T00:24:27.664Z,9.47
2018-12-25T00:26:56.152Z,8.27
2018-12-25T00:29:24.630Z,5.73
2018-12-25T00:31:53.058Z,6.67
2018-12-25T00:34:21.498Z,7.23
2018-12-25T00:36:50.046Z,5.73
2018-12-25T00:39:18.470Z,7.17
2018-12-25T00:41:47.326Z,4.90
2018-12-25T00:44:15.817Z,7.58
2018-12-25T00:46:44.337Z,3.43
2018-12-25T00:49:14.909Z,5.90
2018-12-25T00:51:41.282Z,4.57
2018-12-25T00:54:09.866Z,7.40
2018-12-25T00:56:38.378Z,6.07
2018-12-25T00:59:07.002Z,6.03
2018-12-25T01:01:36.398Z,5.10
2018-12-25T01:04:04.959Z,5.50
2018-12-25T01:06:33.625Z,8.67
2018-12-25T01:09:02.082Z,5.00
2018-12-25T01:11:30.862Z,7.07
2018-12-25T01:13:59.370Z,8.30
2018-12-25T01:16:27.937Z,8.30
2018-12-25T01:18:56.534Z,7.20
2018-12-25T01:21:25.171Z,8.93
2018-12-25T01:23:53.793Z,5.83
2018-12-25T01:26:26.057Z,8.93
2018-12-25T01:28:54.651Z,5.47
2018-12-25T01:31:23.454Z,7.43
2018-12-25T01:33:52.275Z,7.43
2018-12-25T01:36:20.923Z,7.43
2018-12-25T01:38:49.811Z,8.33
2018-12-25T01:41:19.899Z,8.37
2018-12-25T01:43:48.679Z,5.47
2018-12-25T01:46:17.803Z,8.40
2018-12-25T01:48:46.703Z,7.33
2018-12-25T01:52:18.215Z,7.00
2018-12-25T01:54:47.839Z,8.07
2018-12-25T01:57:16.472Z,7.40
2018-12-25T01:59:45.827Z,9.83
2018-12-25T02:02:14.915Z,9.10
2018-12-25T02:04:43.491Z,8.47
2018-12-25T02:07:11.978Z,10.47
2018-12-25T02:09:40.758Z,12.50
2018-12-25T02:12:09.342Z,8.87
2018-12-25T02:14:37.985Z,6.10
2018-12-25T02:17:07.183Z,8.10
2018-12-25T02:19:40.145Z,6.77
2018-12-25T02:22:05.578Z,8.63
2018-12-25T02:24:34.222Z,7.27
2018-12-25T02:27:03.094Z,8.00
2018-12-25T02:29:31.887Z,9.30
2018-12-25T02:32:00.639Z,10.23
2018-12-25T02:34:29.394Z,8.60
2018-12-25T02:36:58.288Z,12.00
2018-12-25T02:39:26.920Z,12.37
2018-12-25T02:41:55.783Z,7.33
2018-12-25T02:44:24.368Z,9.30
2018-12-25T02:46:53.480Z,8.33
2018-12-25T02:49:22.083Z,8.17
2018-12-25T02:51:51.129Z,10.40
2018-12-25T02:54:20.335Z,8.33
2018-12-25T02:56:49.095Z,6.47
2018-12-25T02:59:17.854Z,9.77
2018-12-25T03:01:46.735Z,9.70
2018-12-25T03:04:15.386Z,8.53
2018-12-25T03:07:14.891Z,11.07
2018-12-25T03:09:43.560Z,9.60
2018-12-25T03:12:12.274Z,9.10
2018-12-25T03:14:41.088Z,8.43
2018-12-25T03:17:09.842Z,10.80
2018-12-25T03:19:38.742Z,9.27
2018-12-25T03:22:07.442Z,9.53
2018-12-25T03:24:36.140Z,12.57
2018-12-25T03:27:04.918Z,8.80
2018-12-25T03:29:33.666Z,13.57
2018-12-25T03:32:02.351Z,13.13
2018-12-25T03:34:31.815Z,11.30
2018-12-25T03:37:00.798Z,14.00
2018-12-25T03:39:29.572Z,13.20
2018-12-25T03:41:58.274Z,13.73
2018-12-25T03:44:26.969Z,10.87
2018-12-25T03:46:55.614Z,12.40
2018-12-25T03:49:24.362Z,13.93
2018-12-25T03:51:53.075Z,16.57
2018-12-25T03:54:21.806Z,8.88
2018-12-25T03:56:50.515Z,10.27
2018-12-25T03:59:19.374Z,12.20
2018-12-25T04:01:48.360Z,12.07
2018-12-25T04:04:17.190Z,15.07
2018-12-25T04:06:45.934Z,8.80
2018-12-25T04:09:14.702Z,10.90
2018-12-25T04:11:43.392Z,12.10
2018-12-25T04:14:12.016Z,10.70
2018-12-25T04:16:41.158Z,9.63
2018-12-25T04:19:09.955Z,10.40
2018-12-25T04:21:38.994Z,12.97
2018-12-25T04:24:07.786Z,11.00
2018-12-25T04:26:36.722Z,9.63
2018-12-25T04:29:05.579Z,10.23
2018-12-25T04:31:34.447Z,12.00
2018-12-25T04:34:03.334Z,14.10
2018-12-25T04:36:32.207Z,11.37
2018-12-25T04:39:01.322Z,12.00
2018-12-25T04:41:30.196Z,10.00
2018-12-25T04:43:59.002Z,9.80
2018-12-25T04:46:28.971Z,10.27
2018-12-25T04:48:57.545Z,11.50
2018-12-25T04:51:26.219Z,12.13
2018-12-25T04:53:55.558Z,10.10
2018-12-25T04:56:24.258Z,8.83
2018-12-25T04:58:53.614Z,12.43
2018-12-25T05:01:22.361Z,9.90
2018-12-25T05:03:51.121Z,10.23
2018-12-25T05:06:19.870Z,9.75
2018-12-25T05:08:48.688Z,10.03
2018-12-25T05:11:17.504Z,8.97
2018-12-25T05:13:46.441Z,9.70
2018-12-25T05:16:14.902Z,14.00
2018-12-25T05:18:43.485Z,9.73
2018-12-25T05:21:12.389Z,8.50
2018-12-25T05:23:41.745Z,9.00
2018-12-25T05:26:10.689Z,8.93
2018-12-25T05:28:39.153Z,9.10
2018-12-25T05:31:07.689Z,13.23
2018-12-25T05:33:36.820Z,9.53
2018-12-25T05:36:05.369Z,10.67
2018-12-25T05:38:33.917Z,13.20
2018-12-25T05:41:02.498Z,11.80
2018-12-25T05:43:31.386Z,12.67
2018-12-25T05:46:00.261Z,13.70
2018-12-25T05:48:28.977Z,13.90
2018-12-25T05:50:57.837Z,12.57
2018-12-25T05:53:26.485Z,16.57
2018-12-25T05:55:55.472Z,8.80
2018-12-25T05:58:24.397Z,10.23
2018-12-25T06:00:52.901Z,11.70
2018-12-25T06:03:21.460Z,10.97
2018-12-25T06:05:50.193Z,9.20
2018-12-25T06:08:19.137Z,10.83
2018-12-25T06:10:48.100Z,11.87
2018-12-25T06:13:16.593Z,13.00
2018-12-25T06:15:45.089Z,11.27
2018-12-25T06:18:13.870Z,9.70
2018-12-25T06:20:42.425Z,13.33
2018-12-25T06:23:10.885Z,9.53
2018-12-25T06:25:39.454Z,12.13
2018-12-25T06:28:08.361Z,11.90
2018-12-25T06:30:37.009Z,10.47
2018-12-25T06:33:05.553Z,13.63
2018-12-25T06:35:34.269Z,10.67
2018-12-25T06:38:02.777Z,10.17
2018-12-25T06:40:31.288Z,9.87
2018-12-25T06:43:00.308Z,10.83
2018-12-25T06:45:28.773Z,14.20
2018-12-25T06:47:57.277Z,13.63
2018-12-25T06:50:25.984Z,12.60
2018-12-25T06:52:54.593Z,11.17
2018-12-25T06:55:23.261Z,10.97
2018-12-25T06:57:51.865Z,13.00
2018-12-25T07:00:20.800Z,14.27
2018-12-25T07:02:49.405Z,15.50
2018-12-25T07:05:18.257Z,16.80
2018-12-25T07:07:46.756Z,14.77
2018-12-25T07:10:15.504Z,15.30
2018-12-25T07:12:44.293Z,12.77
2018-12-25T07:15:12.920Z,13.47
2018-12-25T07:17:41.788Z,13.73
2018-12-25T07:20:10.899Z,12.50
2018-12-25T07:22:39.971Z,11.70
2018-12-25T07:25:08.760Z,8.90
2018-12-25T07:27:37.847Z,8.17
2018-12-25T07:30:07.003Z,9.90
2018-12-25T07:32:36.015Z,9.80
2018-12-25T07:35:05.659Z,10.47
2018-12-25T07:37:35.028Z,12.27
2018-12-25T07:40:03.888Z,13.37
2018-12-25T07:42:32.567Z,16.17
2018-12-25T07:45:01.093Z,16.43
2018-12-25T07:47:30.355Z,14.40
2018-12-25T07:49:59.231Z,15.40
2018-12-25T07:56:08.095Z,16.23
2018-12-25T07:58:36.735Z,18.30
2018-12-25T08:01:06.071Z,13.13
2018-12-25T08:03:34.551Z,14.97
2018-12-25T08:06:03.430Z,13.70
2018-12-25T08:08:32.103Z,13.17
2018-12-25T08:11:00.823Z,15.93
2018-12-25T08:13:29.554Z,15.03
2018-12-25T08:15:58.278Z,19.27
2018-12-25T08:18:26.984Z,15.77
2018-12-25T08:20:55.614Z,18.30
2018-12-25T08:23:24.186Z,32.37
2018-12-25T08:25:52.830Z,32.77
2018-12-25T08:28:21.614Z,42.55
2018-12-25T08:30:50.118Z,44.00
2018-12-25T08:33:18.971Z,37.20
2018-12-25T08:35:47.603Z,25.27
2018-12-25T08:38:16.283Z,27.20
2018-12-25T08:40:44.943Z,30.63
2018-12-25T08:44:16.636Z,25.80
2018-12-25T08:46:45.106Z,28.63
2018-12-25T08:49:13.667Z,28.23
2018-12-25T08:51:43.111Z,31.83
2018-12-25T08:54:11.759Z,34.77
2018-12-25T08:56:54.964Z,25.50
2018-12-25T08:59:23.422Z,32.80
2018-12-25T09:01:51.930Z,32.43
2018-12-25T09:04:20.406Z,32.17
2018-12-25T09:06:49.072Z,36.03
2018-12-25T09:09:17.735Z,36.67
2018-12-25T09:11:46.561Z,38.73
2018-12-25T09:14:15.061Z,29.80
2018-12-25T09:16:44.214Z,32.77
2018-12-25T09:19:13.046Z,36.00
2018-12-25T09:21:49.521Z,37.20
2018-12-25T09:24:18.141Z,29.35
2018-12-25T09:26:46.757Z,30.23
2018-12-25T09:29:15.325Z,35.33
2018-12-25T09:31:44.213Z,30.40
2018-12-25T09:34:12.801Z,36.23
2018-12-25T09:36:41.382Z,29.60
2018-12-25T09:39:12.818Z,33.97
2018-12-25T09:41:41.755Z,34.67
2018-12-25T09:44:10.285Z,32.97
2018-12-25T09:46:38.748Z,35.23
2018-12-25T09:49:07.339Z,37.67
2018-12-25T09:51:36.538Z,30.53
2018-12-25T09:54:05.170Z,33.50
2018-12-25T09:56:34.117Z,31.43
2018-12-25T09:59:05.621Z,32.13
2018-12-25T10:01:34.286Z,31.67
2018-12-25T10:04:03.028Z,38.33
2018-12-25T10:06:31.705Z,32.90
2018-12-25T10:09:00.797Z,23.40
2018-12-25T10:11:29.669Z,38.03
2018-12-25T10:13:58.498Z,37.60
2018-12-25T10:16:27.070Z,18.70
2018-12-25T10:18:57.334Z,34.13
2018-12-25T10:21:26.498Z,40.33
2018-12-25T10:23:55.067Z,31.20
2018-12-25T10:26:23.706Z,28.13
2018-12-25T10:28:52.186Z,33.60
2018-12-25T10:31:20.802Z,33.10
2018-12-25T10:33:49.313Z,41.70
2018-12-25T10:36:18.170Z,35.37
2018-12-25T10:38:47.578Z,41.67
2018-12-25T10:41:16.159Z,41.43
2018-12-25T10:43:44.969Z,41.10
2018-12-25T10:46:13.569Z,31.27
2018-12-25T10:48:56.457Z,37.37
2018-12-25T10:51:25.101Z,34.47
2018-12-25T10:53:53.674Z,29.37
2018-12-25T10:56:22.721Z,29.83
2018-12-25T10:58:52.860Z,32.80
2018-12-25T11:01:27.284Z,29.77
2018-12-25T11:03:56.261Z,38.43
2018-12-25T11:06:24.860Z,27.70
2018-12-25T11:08:53.620Z,28.93
2018-12-25T11:11:22.284Z,30.50
2018-12-25T11:13:50.908Z,34.77
2018-12-25T11:16:20.240Z,33.15
2018-12-25T11:18:49.174Z,40.97
2018-12-25T11:21:17.660Z,36.60
2018-12-25T11:23:46.148Z,41.77
2018-12-25T11:26:14.628Z,27.25
2018-12-25T11:28:43.108Z,27.33
2018-12-25T11:31:12.613Z,23.50
2018-12-25T11:33:41.045Z,28.50
2018-12-25T11:36:10.233Z,21.70
2018-12-25T11:38:38.944Z,25.27
2018-12-25T11:41:07.432Z,25.53
2018-12-25T11:43:36.268Z,30.30
2018-12-25T11:46:04.985Z,29.77
2018-12-25T11:48:33.755Z,26.53
2018-12-25T11:51:02.430Z,25.50
2018-12-25T11:53:31.331Z,30.30
2018-12-25T11:56:00.058Z,26.43
2018-12-25T11:58:28.702Z,25.83
2018-12-25T12:00:58.917Z,25.73
2018-12-25T12:03:28.329Z,20.67
2018-12-25T12:05:57.257Z,30.10
2018-12-25T12:08:25.886Z,25.77
2018-12-25T12:10:54.602Z,24.17
2018-12-25T12:13:23.423Z,22.30
2018-12-25T12:15:52.418Z,22.27
2018-12-25T12:18:21.155Z,23.53
2018-12-25T12:20:49.910Z,20.83
2018-12-25T12:23:18.890Z,29.73
2018-12-25T12:25:47.805Z,30.93
2018-12-25T12:28:16.693Z,23.50
2018-12-25T12:30:45.802Z,21.80
2018-12-25T12:33:15.625Z,19.90
2018-12-25T12:35:43.841Z,20.50
2018-12-25T12:38:12.694Z,24.83
2018-12-25T12:40:41.410Z,24.13
2018-12-25T12:43:10.143Z,24.87
2018-12-25T12:45:38.678Z,23.60
2018-12-25T12:48:07.311Z,28.87
2018-12-25T12:50:35.925Z,30.63
2018-12-25T12:53:05.282Z,26.33
2018-12-25T12:55:33.947Z,21.20
2018-12-25T12:58:02.473Z,28.30
2018-12-25T13:00:31.278Z,24.83
2018-12-25T13:03:00.123Z,23.90
2018-12-25T13:05:28.657Z,26.37
2018-12-25T13:07:57.529Z,27.40
2018-12-25T13:10:26.113Z,24.57
2018-12-25T13:12:54.858Z,26.93
2018-12-25T13:15:23.633Z,27.70
2018-12-25T13:17:52.217Z,29.00
2018-12-25T13:20:20.758Z,43.17
2018-12-25T13:22:54.044Z,33.67
2018-12-25T13:25:18.549Z,33.13
2018-12-25T13:27:47.345Z,30.47
2018-12-25T13:30:16.401Z,23.77
2018-12-25T13:32:44.953Z,26.63
2018-12-25T13:35:13.486Z,22.17
2018-12-25T13:37:42.097Z,24.60
2018-12-25T13:40:10.661Z,25.13
2018-12-25T13:42:39.249Z,21.40
2018-12-25T13:45:07.916Z,21.47
2018-12-25T13:47:36.761Z,24.63
2018-12-25T13:50:07.081Z,27.50
2018-12-25T13:52:35.941Z,21.10
2018-12-25T13:55:05.041Z,26.12
2018-12-25T13:57:33.681Z,26.37
2018-12-25T14:00:02.212Z,21.70
2018-12-25T14:02:31.105Z,24.00
2018-12-25T14:04:59.618Z,27.57
2018-12-25T14:07:28.221Z,33.70
2018-12-25T14:09:56.741Z,34.20
2018-12-25T14:12:25.309Z,31.57
2018-12-25T14:14:54.141Z,27.77
2018-12-25T14:17:22.769Z,30.33
2018-12-25T14:19:51.569Z,26.47
2018-12-25T14:22:20.125Z,25.57
2018-12-25T14:24:49.130Z,23.73
2018-12-25T14:27:19.729Z,25.27
2018-12-25T14:29:48.323Z,30.47
2018-12-25T14:32:17.213Z,24.33
2018-12-25T14:34:46.052Z,33.60
2018-12-25T14:37:14.920Z,17.93
2018-12-25T14:39:43.649Z,19.67
2018-12-25T14:42:12.232Z,19.63
2018-12-25T14:44:41.046Z,19.00
2018-12-25T14:47:09.610Z,22.37
2018-12-25T14:49:38.190Z,20.27
2018-12-25T14:52:07.081Z,20.63
2018-12-25T14:54:35.645Z,18.10
2018-12-25T14:57:05.685Z,18.13
2018-12-25T14:59:34.417Z,20.90
2018-12-25T15:02:03.213Z,19.60
2018-12-25T15:04:32.085Z,25.27
2018-12-25T15:07:01.052Z,18.83
2018-12-25T15:09:29.953Z,17.57
2018-12-25T15:11:58.592Z,16.67
2018-12-25T15:14:27.482Z,24.80
2018-12-25T15:16:56.074Z,18.23
2018-12-25T15:19:24.674Z,18.07
2018-12-25T15:21:53.243Z,14.47
2018-12-25T15:24:21.847Z,20.00
2018-12-25T15:26:50.716Z,21.20
2018-12-25T15:29:19.310Z,16.83
2018-12-25T15:31:47.890Z,20.13
2018-12-25T15:34:16.799Z,17.00
2018-12-25T15:36:45.356Z,21.80
2018-12-25T15:39:14.458Z,19.13
2018-12-25T15:41:43.058Z,19.27
2018-12-25T15:44:11.863Z,19.82
2018-12-25T15:46:40.537Z,23.60
2018-12-25T15:49:09.122Z,23.93
2018-12-25T15:51:38.237Z,17.67
2018-12-25T15:54:06.815Z,20.87
2018-12-25T15:56:35.779Z,21.23
2018-12-25T15:59:05.056Z,20.23
2018-12-25T16:01:33.610Z,19.67
2018-12-25T16:04:02.236Z,17.10
2018-12-25T16:06:30.847Z,17.13
2018-12-25T16:08:59.502Z,21.77
2018-12-25T16:11:28.118Z,19.17
2018-12-25T16:13:56.699Z,22.53
2018-12-25T16:16:25.480Z,22.33
2018-12-25T16:18:54.206Z,21.53
2018-12-25T16:21:22.759Z,24.77
2018-12-25T16:23:51.265Z,18.77
2018-12-25T16:26:20.135Z,24.30
2018-12-25T16:28:48.642Z,23.93
2018-12-25T16:31:17.131Z,23.07
2018-12-25T16:33:45.670Z,20.13
2018-12-25T16:36:14.270Z,21.73
2018-12-25T16:38:43.457Z,17.53
2018-12-25T16:41:12.298Z,22.63
2018-12-25T16:43:41.146Z,16.90
2018-12-25T16:46:10.031Z,19.40
2018-12-25T16:48:39.263Z,20.10
2018-12-25T16:51:07.747Z,18.70
2018-12-25T16:53:36.278Z,20.93
2018-12-25T16:56:05.246Z,18.87
2018-12-25T16:58:34.250Z,21.97
2018-12-25T17:01:03.015Z,18.83
2018-12-25T17:03:31.507Z,21.73
2018-12-25T17:06:00.052Z,23.80
2018-12-25T17:08:28.597Z,29.70
2018-12-25T17:10:57.374Z,23.13
2018-12-25T18:49:15.596Z,22.20
2018-12-25T18:51:44.290Z,18.83
2018-12-25T18:54:12.890Z,22.73
2018-12-25T18:56:41.422Z,24.43
2018-12-25T18:59:09.957Z,23.13
2018-12-25T19:01:38.759Z,22.57
2018-12-25T19:04:07.266Z,25.93
2018-12-25T19:06:35.757Z,25.57
2018-12-25T19:09:06.846Z,20.27
2018-12-25T19:11:35.885Z,20.47
2018-12-25T19:14:05.593Z,26.77
2018-12-25T19:16:34.409Z,23.70
2018-12-25T19:19:03.025Z,25.77
2018-12-25T19:21:31.869Z,26.17
2018-12-25T19:24:01.581Z,25.20
2018-12-25T19:26:30.241Z,23.80
2018-12-25T19:28:59.114Z,22.80
2018-12-25T19:31:27.771Z,29.87
2018-12-25T19:33:56.241Z,26.60
2018-12-25T19:36:24.761Z,21.33
2018-12-25T19:38:53.254Z,21.80
2018-12-25T19:41:21.774Z,19.67
2018-12-25T19:43:50.261Z,18.90
2018-12-25T19:46:18.856Z,20.53
2018-12-25T19:48:47.645Z,23.43
2018-12-25T19:51:16.177Z,19.90
2018-12-25T19:53:44.701Z,17.97
2018-12-25T19:56:13.229Z,21.93
2018-12-25T19:58:41.829Z,24.40
2018-12-25T20:01:10.361Z,19.67
2018-12-25T20:03:45.417Z,25.47
2018-12-25T20:06:43.749Z,18.20
2018-12-25T20:09:43.033Z,20.90
2018-12-25T20:12:24.534Z,14.47
2018-12-25T20:17:05.569Z,17.00
2018-12-25T20:19:43.946Z,16.07
2018-12-25T20:22:42.533Z,16.97
2018-12-25T20:25:23.893Z,15.37
2018-12-25T20:28:08.151Z,20.68
2018-12-25T20:32:49.253Z,19.53
2018-12-25T20:35:37.430Z,21.23
2018-12-25T20:38:33.833Z,14.00
2018-12-25T20:42:20.509Z,14.37
2018-12-25T20:45:13.786Z,13.90
2018-12-25T20:48:15.098Z,15.03
2018-12-25T20:52:57.364Z,15.60
2018-12-25T20:58:09.400Z,9.80
2018-12-25T21:00:55.691Z,19.70
2018-12-25T21:03:35.285Z,11.97
2018-12-25T21:10:20.825Z,18.13
2018-12-25T21:13:08.185Z,15.13
2018-12-25T21:15:56.544Z,11.27
2018-12-25T21:18:41.997Z,16.33
2018-12-25T21:21:53.285Z,11.97
2018-12-25T21:24:33.256Z,12.87
2018-12-25T21:27:13.469Z,11.83
2018-12-25T21:29:42.061Z,9.60
2018-12-25T21:32:10.683Z,11.03
2018-12-25T21:34:39.157Z,8.40
2018-12-25T21:37:12.681Z,15.07
2018-12-25T21:39:41.255Z,13.07
2018-12-25T21:42:10.397Z,13.90
2018-12-25T21:44:38.985Z,8.23
2018-12-25T21:47:07.677Z,11.12
2018-12-25T21:49:37.073Z,9.23
2018-12-25T21:52:05.659Z,11.60
2018-12-25T21:54:34.477Z,8.73
2018-12-25T21:57:03.009Z,11.08
2018-12-25T21:59:31.624Z,12.93
2018-12-25T22:02:00.201Z,16.23
2018-12-25T22:04:28.788Z,15.63
2018-12-25T22:06:57.295Z,10.50
2018-12-25T22:09:25.900Z,13.60
2018-12-25T22:11:54.688Z,40.03
2018-12-25T22:14:23.460Z,42.05
2018-12-25T22:16:52.009Z,27.53
2018-12-25T22:19:20.538Z,28.43
2018-12-25T22:21:49.020Z,26.13
2018-12-25T22:24:17.588Z,20.48
2018-12-25T22:26:46.092Z,23.57
2018-12-25T22:29:14.577Z,15.00
2018-12-25T22:31:43.090Z,18.77
2018-12-25T22:34:11.556Z,16.90
2018-12-25T22:36:40.044Z,18.87
2018-12-25T22:39:08.672Z,22.73
2018-12-25T22:41:37.140Z,18.37
2018-12-25T22:44:05.766Z,19.67
2018-12-25T22:46:34.350Z,25.60
2018-12-25T22:49:02.851Z,25.37
2018-12-25T22:51:32.109Z,24.17
2018-12-25T22:54:00.928Z,22.17
2018-12-25T22:56:29.452Z,22.63
2018-12-25T22:58:58.020Z,18.43
2018-12-25T23:01:26.660Z,19.53
2018-12-25T23:03:55.583Z,12.43
2018-12-25T23:06:24.064Z,16.60
2018-12-25T23:08:53.080Z,18.13
2018-12-25T23:11:21.972Z,21.03
2018-12-25T23:13:50.504Z,16.30
2018-12-25T23:16:24.416Z,19.73
2018-12-25T23:19:07.233Z,20.50
2018-12-25T23:21:53.570Z,15.30
2018-12-25T23:24:36.244Z,18.55
2018-12-25T23:27:13.840Z,20.23
2018-12-25T23:29:52.668Z,21.17
2018-12-25T23:32:29.960Z,18.90
2018-12-25T23:35:06.746Z,13.60
2018-12-25T23:37:44.627Z,16.20
2018-12-25T23:40:23.456Z,13.23
2018-12-25T23:43:05.663Z,16.65
2018-12-25T23:45:43.260Z,15.47
2018-12-25T23:48:19.928Z,17.00
2018-12-25T23:51:01.051Z,12.33
2018-12-25T23:53:36.339Z,16.50
2018-12-25T23:56:17.004Z,15.74
2018-12-25T23:58:54.969Z,12.90
